createdAt,value
2018-05-08T00:00:34.200Z,14.65
2018-05-08T00:01:34.389Z,14.55
2018-05-08T00:02:34.565Z,14.59
2018-05-08T00:03:34.762Z,14.54
2018-05-08T00:04:34.953Z,14.44
2018-05-08T00:05:35.148Z,14.40
2018-05-08T00:06:35.330Z,14.36
2018-05-08T00:07:35.537Z,14.37
2018-05-08T00:08:35.742Z,14.37
2018-05-08T00:09:35.928Z,14.32
2018-05-08T00:10:36.104Z,14.30
2018-05-08T00:11:36.286Z,14.18
2018-05-08T00:12:36.485Z,14.20
2018-05-08T00:13:36.685Z,14.14
2018-05-08T00:14:36.852Z,14.11
2018-05-08T00:15:37.036Z,14.11
2018-05-08T00:16:37.223Z,14.23
2018-05-08T00:17:37.416Z,14.18
2018-05-08T00:18:37.599Z,14.17
2018-05-08T00:19:37.790Z,14.15
2018-05-08T00:20:37.972Z,14.05
2018-05-08T00:21:38.155Z,14.15
2018-05-08T00:22:38.340Z,14.08
2018-05-08T00:23:38.520Z,14.23
2018-05-08T00:24:38.733Z,14.11
2018-05-08T00:25:38.920Z,14.15
2018-05-08T00:26:39.109Z,14.12
2018-05-08T00:27:39.352Z,14.12
2018-05-08T00:28:39.515Z,14.10
2018-05-08T00:29:39.721Z,14.04
2018-05-08T00:30:39.907Z,14.05
2018-05-08T00:31:40.094Z,14.00
2018-05-08T00:32:40.282Z,14.03
2018-05-08T00:33:40.466Z,13.96
2018-05-08T00:34:40.653Z,13.97
2018-05-08T00:35:40.840Z,13.93
2018-05-08T00:36:41.030Z,13.95
2018-05-08T00:37:41.217Z,13.92
2018-05-08T00:38:41.402Z,13.96
2018-05-08T00:39:41.601Z,13.95
2018-05-08T00:40:41.790Z,13.81
2018-05-08T00:41:41.975Z,13.83
2018-05-08T00:42:42.162Z,13.85
2018-05-08T00:43:42.344Z,13.81
2018-05-08T00:44:42.550Z,13.72
2018-05-08T00:45:42.733Z,13.74
2018-05-08T00:46:42.922Z,13.67
2018-05-08T00:47:43.098Z,13.67
2018-05-08T00:48:43.291Z,13.62
2018-05-08T00:49:43.495Z,13.54
2018-05-08T00:50:43.677Z,13.50
2018-05-08T00:51:43.868Z,13.46
2018-05-08T00:52:44.052Z,13.50
2018-05-08T00:53:44.249Z,13.50
2018-05-08T00:54:44.429Z,13.46
2018-05-08T00:55:44.609Z,13.35
2018-05-08T00:56:44.802Z,13.37
2018-05-08T00:57:44.982Z,13.41
2018-05-08T00:58:45.174Z,13.35
2018-05-08T00:59:45.355Z,13.35
2018-05-08T01:00:45.539Z,13.35
2018-05-08T01:01:45.713Z,13.31
2018-05-08T01:02:45.900Z,13.35
2018-05-08T01:03:46.081Z,13.37
2018-05-08T01:04:46.275Z,13.22
2018-05-08T01:05:46.468Z,13.39
2018-05-08T01:06:46.668Z,13.42
2018-05-08T01:07:46.841Z,13.31
2018-05-08T01:08:47.043Z,13.22
2018-05-08T01:09:47.244Z,13.37
2018-05-08T01:10:47.423Z,13.28
2018-05-08T01:11:47.611Z,13.27
2018-05-08T01:12:47.790Z,13.20
2018-05-08T01:13:47.984Z,13.22
2018-05-08T01:14:48.191Z,13.19
2018-05-08T01:15:48.368Z,13.25
2018-05-08T01:16:48.556Z,13.20
2018-05-08T01:17:48.740Z,13.12
2018-05-08T01:18:48.933Z,13.12
2018-05-08T01:19:49.119Z,13.05
2018-05-08T01:20:49.305Z,13.11
2018-05-08T01:21:49.490Z,13.08
2018-05-08T01:22:49.672Z,13.09
2018-05-08T01:23:49.865Z,13.03
2018-05-08T01:24:50.042Z,13.19
2018-05-08T01:25:50.220Z,13.19
2018-05-08T01:26:50.408Z,13.15
2018-05-08T01:27:50.593Z,13.09
2018-05-08T01:28:50.784Z,13.25
2018-05-08T01:29:50.969Z,13.13
2018-05-08T01:30:51.165Z,13.11
2018-05-08T01:31:51.358Z,13.09
2018-05-08T01:32:51.556Z,13.15
2018-05-08T01:33:51.740Z,13.09
2018-05-08T01:34:51.923Z,13.00
2018-05-08T01:35:52.111Z,13.09
2018-05-08T01:36:52.295Z,13.08
2018-05-08T01:37:52.484Z,12.95
2018-05-08T01:38:52.665Z,12.98
2018-05-08T01:39:52.862Z,12.95
2018-05-08T01:40:53.058Z,13.00
2018-05-08T01:41:53.244Z,12.91
2018-05-08T01:42:53.426Z,12.98
2018-05-08T01:43:53.624Z,13.01
2018-05-08T01:44:53.807Z,12.90
2018-05-08T01:45:53.987Z,12.91
2018-05-08T01:46:54.174Z,13.00
2018-05-08T01:47:54.344Z,12.97
2018-05-08T01:48:54.523Z,12.95
2018-05-08T01:49:54.704Z,12.93
2018-05-08T01:50:54.894Z,12.91
2018-05-08T01:51:55.082Z,12.93
2018-05-08T01:52:55.260Z,12.95
2018-05-08T01:53:55.440Z,12.90
2018-05-08T01:54:55.631Z,12.93
2018-05-08T01:55:55.814Z,12.83
2018-05-08T01:56:55.991Z,12.70
2018-05-08T01:57:56.179Z,12.61
2018-05-08T01:58:56.371Z,12.58
2018-05-08T01:59:56.550Z,12.55
2018-05-08T02:00:56.741Z,12.60
2018-05-08T02:01:56.930Z,12.49
2018-05-08T02:02:57.121Z,12.47
2018-05-08T02:03:57.316Z,12.54
2018-05-08T02:04:57.505Z,12.46
2018-05-08T02:05:57.682Z,12.42
2018-05-08T02:06:57.859Z,12.39
2018-05-08T02:07:58.063Z,12.35
2018-05-08T02:08:58.254Z,12.31
2018-05-08T02:09:58.436Z,12.32
2018-05-08T02:10:58.626Z,12.28
2018-05-08T02:11:58.819Z,12.17
2018-05-08T02:12:58.997Z,12.20
2018-05-08T02:13:59.187Z,12.13
2018-05-08T02:14:59.384Z,12.10
2018-05-08T02:15:59.563Z,12.18
2018-05-08T02:16:59.743Z,12.09
2018-05-08T02:17:59.927Z,12.09
2018-05-08T02:19:00.118Z,12.18
2018-05-08T02:20:00.304Z,12.09
2018-05-08T02:21:00.494Z,12.07
2018-05-08T02:22:00.675Z,12.07
2018-05-08T02:23:00.856Z,12.06
2018-05-08T02:24:01.042Z,12.04
2018-05-08T02:25:01.233Z,12.04
2018-05-08T02:26:01.528Z,11.99
2018-05-08T02:27:01.609Z,12.06
2018-05-08T02:28:01.788Z,12.00
2018-05-08T02:29:01.980Z,12.09
2018-05-08T02:30:02.166Z,12.06
2018-05-08T02:31:02.362Z,12.03
2018-05-08T02:32:02.545Z,11.94
2018-05-08T02:33:02.734Z,11.86
2018-05-08T02:34:02.924Z,11.86
2018-05-08T02:35:03.104Z,11.83
2018-05-08T02:36:03.283Z,11.90
2018-05-08T02:37:03.477Z,11.81
2018-05-08T02:38:03.660Z,11.88
2018-05-08T02:39:03.851Z,11.95
2018-05-08T02:40:04.042Z,11.86
2018-05-08T02:41:04.227Z,11.86
2018-05-08T02:42:04.413Z,11.86
2018-05-08T02:43:04.611Z,11.84
2018-05-08T02:44:04.786Z,11.88
2018-05-08T02:45:04.971Z,11.87
2018-05-08T02:46:05.150Z,11.84
2018-05-08T02:47:05.344Z,11.83
2018-05-08T02:48:05.524Z,11.84
2018-05-08T02:49:05.710Z,11.73
2018-05-08T02:50:05.897Z,11.84
2018-05-08T02:51:06.083Z,11.78
2018-05-08T02:52:06.263Z,11.81
2018-05-08T02:53:06.448Z,11.68
2018-05-08T02:54:06.655Z,11.62
2018-05-08T02:55:06.824Z,11.52
2018-05-08T02:56:06.998Z,11.52
2018-05-08T02:57:07.175Z,11.59
2018-05-08T02:58:07.356Z,11.54
2018-05-08T02:59:07.537Z,11.62
2018-05-08T03:00:07.713Z,11.68
2018-05-08T03:01:07.893Z,11.54
2018-05-08T03:02:09.491Z,11.60
2018-05-08T03:03:08.299Z,11.62
2018-05-08T03:04:08.477Z,11.60
2018-05-08T03:05:08.656Z,11.52
2018-05-08T03:06:08.834Z,11.48
2018-05-08T03:07:09.013Z,11.44
2018-05-08T03:08:09.191Z,11.47
2018-05-08T03:09:09.368Z,11.50
2018-05-08T03:10:09.549Z,11.51
2018-05-08T03:11:09.734Z,11.59
2018-05-08T03:12:09.913Z,11.57
2018-05-08T03:13:10.103Z,11.52
2018-05-08T03:14:10.285Z,11.52
2018-05-08T03:15:10.467Z,11.55
2018-05-08T03:16:10.668Z,11.57
2018-05-08T03:17:10.855Z,11.52
2018-05-08T03:18:11.033Z,11.50
2018-05-08T03:19:11.207Z,11.54
2018-05-08T03:20:11.392Z,11.54
2018-05-08T03:21:11.585Z,11.51
2018-05-08T03:22:11.761Z,11.55
2018-05-08T03:23:11.943Z,11.65
2018-05-08T03:24:12.127Z,11.62
2018-05-08T03:25:12.306Z,11.54
2018-05-08T03:26:12.490Z,11.55
2018-05-08T03:27:12.673Z,11.54
2018-05-08T03:28:12.858Z,11.60
2018-05-08T03:29:13.042Z,11.59
2018-05-08T03:30:13.260Z,11.51
2018-05-08T03:31:13.318Z,11.55
2018-05-08T03:32:13.501Z,11.52
2018-05-08T03:33:13.681Z,11.52
2018-05-08T03:34:13.864Z,11.43
2018-05-08T03:35:14.063Z,11.40
2018-05-08T03:36:14.242Z,11.35
2018-05-08T03:37:14.441Z,11.33
2018-05-08T03:38:14.650Z,11.27
2018-05-08T03:39:14.806Z,11.19
2018-05-08T03:40:14.984Z,11.14
2018-05-08T03:41:15.164Z,11.14
2018-05-08T03:42:15.356Z,11.10
2018-05-08T03:43:15.541Z,11.08
2018-05-08T03:44:15.726Z,11.15
2018-05-08T03:45:15.909Z,11.23
2018-05-08T03:46:16.110Z,11.14
2018-05-08T03:47:16.293Z,11.14
2018-05-08T03:48:16.473Z,11.14
2018-05-08T03:49:16.660Z,11.11
2018-05-08T03:50:16.862Z,11.08
2018-05-08T03:51:17.069Z,11.08
2018-05-08T03:52:17.250Z,11.02
2018-05-08T03:53:17.429Z,11.00
2018-05-08T03:54:17.619Z,10.96
2018-05-08T03:55:17.818Z,10.94
2018-05-08T03:56:18.006Z,10.92
2018-05-08T03:57:18.207Z,10.94
2018-05-08T03:58:18.394Z,10.94
2018-05-08T03:59:18.577Z,10.99
2018-05-08T04:00:18.766Z,10.93
2018-05-08T04:01:18.956Z,10.92
2018-05-08T04:02:19.164Z,10.92
2018-05-08T04:03:19.358Z,10.96
2018-05-08T04:04:19.576Z,10.82
2018-05-08T04:05:19.766Z,10.76
2018-05-08T04:06:19.987Z,10.87
2018-05-08T04:07:20.205Z,10.96
2018-05-08T04:08:20.499Z,10.87
2018-05-08T04:09:20.680Z,10.86
2018-05-08T04:10:20.768Z,10.81
2018-05-08T04:11:20.988Z,10.82
2018-05-08T04:12:21.189Z,10.74
2018-05-08T04:13:21.385Z,10.74
2018-05-08T04:14:21.579Z,10.71
2018-05-08T04:15:21.795Z,10.71
2018-05-08T04:16:21.985Z,10.68
2018-05-08T04:17:22.197Z,10.68
2018-05-08T04:18:22.285Z,10.71
2018-05-08T04:19:22.481Z,10.71
2018-05-08T04:20:22.670Z,10.72
2018-05-08T04:21:22.858Z,10.69
2018-05-08T04:22:23.041Z,10.74
2018-05-08T04:23:23.265Z,10.79
2018-05-08T04:24:23.489Z,10.89
2018-05-08T04:25:23.697Z,10.87
2018-05-08T04:26:23.918Z,10.89
2018-05-08T04:27:24.151Z,10.93
2018-05-08T04:28:24.260Z,10.99
2018-05-08T04:29:24.416Z,11.00
2018-05-08T04:30:24.500Z,11.04
2018-05-08T04:31:24.603Z,10.94
2018-05-08T04:32:24.701Z,11.10
2018-05-08T04:33:24.814Z,11.07
2018-05-08T04:34:26.192Z,11.05
2018-05-08T04:35:25.191Z,11.08
2018-05-08T04:36:25.474Z,11.12
2018-05-08T04:37:25.724Z,11.15
2018-05-08T04:38:25.672Z,11.12
2018-05-08T04:39:25.904Z,11.14
2018-05-08T04:40:26.082Z,11.23
2018-05-08T04:41:26.288Z,11.32
2018-05-08T04:42:26.540Z,11.33
2018-05-08T04:43:26.610Z,11.37
2018-05-08T04:44:26.843Z,11.41
2018-05-08T04:45:27.020Z,11.57
2018-05-08T04:46:27.254Z,11.55
2018-05-08T04:47:27.434Z,11.55
2018-05-08T04:48:27.494Z,11.68
2018-05-08T04:49:27.672Z,11.73
2018-05-08T04:50:27.808Z,11.84
2018-05-08T04:51:27.917Z,11.86
2018-05-08T04:52:27.975Z,11.88
2018-05-08T04:53:28.168Z,11.90
2018-05-08T04:54:28.381Z,12.02
2018-05-08T04:55:28.586Z,12.06
2018-05-08T04:56:28.794Z,12.06
2018-05-08T04:57:28.885Z,12.17
2018-05-08T04:58:29.123Z,12.15
2018-05-08T04:59:29.207Z,12.24
2018-05-08T05:00:29.403Z,12.28
2018-05-08T05:01:29.624Z,12.40
2018-05-08T05:02:29.863Z,12.32
2018-05-08T05:03:31.573Z,12.40
2018-05-08T05:04:30.167Z,12.62
2018-05-08T05:05:30.446Z,12.70
2018-05-08T05:06:30.623Z,12.70
2018-05-08T05:07:30.677Z,12.73
2018-05-08T05:08:30.814Z,12.93
2018-05-08T05:09:31.004Z,13.00
2018-05-08T05:10:31.669Z,13.09
2018-05-08T05:11:31.341Z,13.04
2018-05-08T05:12:31.615Z,13.15
2018-05-08T05:13:31.747Z,13.18
2018-05-08T05:14:31.867Z,13.20
2018-05-08T05:15:32.058Z,13.25
2018-05-08T05:16:32.254Z,13.38
2018-05-08T05:17:32.489Z,13.53
2018-05-08T05:18:32.554Z,13.57
2018-05-08T05:19:32.744Z,13.71
2018-05-08T05:20:32.960Z,13.75
2018-05-08T05:21:33.140Z,13.77
2018-05-08T05:22:33.327Z,13.99
2018-05-08T05:23:33.541Z,13.96
2018-05-08T05:24:33.676Z,14.10
2018-05-08T05:25:33.809Z,14.23
2018-05-08T05:26:34.004Z,14.30
2018-05-08T05:27:34.215Z,14.36
2018-05-08T05:28:34.410Z,14.54
2018-05-08T05:29:34.605Z,14.53
2018-05-08T05:30:34.781Z,14.66
2018-05-08T05:31:35.031Z,14.69
2018-05-08T05:32:35.178Z,14.72
2018-05-08T05:33:35.366Z,14.85
2018-05-08T05:34:35.543Z,15.00
2018-05-08T05:35:35.776Z,14.91
2018-05-08T05:36:35.926Z,15.10
2018-05-08T05:37:36.104Z,15.21
2018-05-08T05:38:36.290Z,15.19
2018-05-08T05:39:36.479Z,15.35
2018-05-08T05:40:36.662Z,15.47
2018-05-08T05:41:36.842Z,15.55
2018-05-08T05:42:37.054Z,15.57
2018-05-08T05:43:37.222Z,15.67
2018-05-08T05:44:37.416Z,15.76
2018-05-08T05:45:37.640Z,15.76
2018-05-08T05:46:37.826Z,15.86
2018-05-08T05:47:38.018Z,15.94
2018-05-08T05:48:38.224Z,15.97
2018-05-08T05:49:38.416Z,16.02
2018-05-08T05:50:38.624Z,16.15
2018-05-08T05:51:38.820Z,16.16
2018-05-08T05:52:38.999Z,16.32
2018-05-08T05:53:39.190Z,16.35
2018-05-08T05:54:39.381Z,16.51
2018-05-08T05:55:39.569Z,16.66
2018-05-08T05:56:39.788Z,16.86
2018-05-08T05:57:45.227Z,16.94
2018-05-08T05:58:41.250Z,17.16
2018-05-08T05:59:44.557Z,17.41
2018-05-08T06:00:40.538Z,17.63
2018-05-08T06:01:40.732Z,18.01
2018-05-08T06:02:40.920Z,18.23
2018-05-08T06:03:41.105Z,18.47
2018-05-08T06:04:41.291Z,18.81
2018-05-08T06:05:41.485Z,19.29
2018-05-08T06:06:41.670Z,19.48
2018-05-08T06:07:41.852Z,19.86
2018-05-08T06:08:42.037Z,20.22
2018-05-08T06:09:42.221Z,20.84
2018-05-08T06:10:42.404Z,21.14
2018-05-08T06:11:42.588Z,21.64
2018-05-08T06:12:42.782Z,22.26
2018-05-08T06:13:42.973Z,22.72
2018-05-08T06:14:43.165Z,22.91
2018-05-08T06:15:43.349Z,23.24
2018-05-08T06:16:43.535Z,23.87
2018-05-08T06:17:43.720Z,24.40
2018-05-08T06:18:43.922Z,24.98
2018-05-08T06:19:44.110Z,25.06
2018-05-08T06:20:44.307Z,25.55
2018-05-08T06:21:44.493Z,25.98
2018-05-08T06:22:44.683Z,26.47
2018-05-08T06:23:44.882Z,26.93
2018-05-08T06:24:45.071Z,27.33
2018-05-08T06:25:45.261Z,27.54
2018-05-08T06:26:45.447Z,27.82
2018-05-08T06:27:45.639Z,27.35
2018-05-08T06:28:45.830Z,27.63
2018-05-08T06:29:46.022Z,28.00
2018-05-08T06:30:46.217Z,28.20
2018-05-08T06:31:46.411Z,28.23
2018-05-08T06:32:46.631Z,28.56
2018-05-08T06:33:46.814Z,28.66
2018-05-08T06:34:47.028Z,29.04
2018-05-08T06:35:47.214Z,29.17
2018-05-08T06:36:47.609Z,29.39
2018-05-08T06:37:47.769Z,29.57
2018-05-08T06:38:48.121Z,29.60
2018-05-08T06:39:48.132Z,29.69
2018-05-08T06:40:48.720Z,29.63
2018-05-08T06:41:49.111Z,29.65
2018-05-08T06:42:48.883Z,29.91
2018-05-08T06:43:48.842Z,30.05
2018-05-08T06:44:48.859Z,30.46
2018-05-08T06:45:49.377Z,30.83
2018-05-08T06:46:49.210Z,31.07
2018-05-08T06:47:49.420Z,31.44
2018-05-08T06:48:49.594Z,31.69
2018-05-08T06:49:49.789Z,31.70
2018-05-08T06:50:49.991Z,31.73
2018-05-08T06:51:51.058Z,31.58
2018-05-08T06:52:50.391Z,31.03
2018-05-08T06:53:50.586Z,31.36
2018-05-08T06:54:50.849Z,31.40
2018-05-08T06:55:51.012Z,31.21
2018-05-08T06:56:51.216Z,31.37
2018-05-08T06:57:51.623Z,31.54
2018-05-08T06:58:51.632Z,31.74
2018-05-08T06:59:51.979Z,31.99
2018-05-08T07:00:52.214Z,32.33
2018-05-08T07:01:52.107Z,32.87
2018-05-08T07:02:52.309Z,33.34
2018-05-08T07:03:52.523Z,33.49
2018-05-08T07:04:52.714Z,33.74
2018-05-08T07:05:52.901Z,34.23
2018-05-08T07:06:53.095Z,34.62
2018-05-08T07:07:53.288Z,34.99
2018-05-08T07:08:53.518Z,34.99
2018-05-08T07:09:53.701Z,35.07
2018-05-08T07:10:53.913Z,35.34
2018-05-08T07:11:54.102Z,35.53
2018-05-08T07:12:54.306Z,35.71
2018-05-08T07:13:54.501Z,36.23
2018-05-08T07:14:54.700Z,36.24
2018-05-08T07:15:54.992Z,36.33
2018-05-08T07:16:55.113Z,36.42
2018-05-08T07:17:55.303Z,36.54
2018-05-08T07:18:56.070Z,36.16
2018-05-08T07:19:55.683Z,36.14
2018-05-08T07:20:55.889Z,35.67
2018-05-08T07:21:56.076Z,36.01
2018-05-08T07:22:56.264Z,36.12
2018-05-08T07:23:56.508Z,36.57
2018-05-08T07:24:56.694Z,37.11
2018-05-08T07:25:56.886Z,37.70
2018-05-08T07:26:57.085Z,37.99
2018-05-08T07:27:57.325Z,38.11
2018-05-08T07:28:57.482Z,38.06
2018-05-08T07:29:57.728Z,37.37
2018-05-08T07:30:58.658Z,37.45
2018-05-08T07:31:58.091Z,37.40
2018-05-08T07:32:58.265Z,37.80
2018-05-08T07:33:58.463Z,37.86
2018-05-08T07:34:58.731Z,38.30
2018-05-08T07:35:58.797Z,38.84
2018-05-08T07:36:59.194Z,38.79
2018-05-08T07:37:59.153Z,39.34
2018-05-08T07:38:59.378Z,39.51
2018-05-08T07:39:59.580Z,39.53
2018-05-08T07:40:59.775Z,39.19
2018-05-08T07:41:59.994Z,38.74
2018-05-08T07:43:00.189Z,38.74
2018-05-08T07:44:00.393Z,38.87
2018-05-08T07:45:00.583Z,39.02
2018-05-08T07:46:00.787Z,38.97
2018-05-08T07:47:00.989Z,39.11
2018-05-08T07:48:01.222Z,39.36
2018-05-08T07:49:01.386Z,39.36
2018-05-08T07:50:01.585Z,39.51
2018-05-08T07:51:01.777Z,39.26
2018-05-08T07:52:01.981Z,39.21
2018-05-08T07:53:02.188Z,38.99
2018-05-08T07:54:02.393Z,39.11
2018-05-08T07:55:02.591Z,39.34
2018-05-08T07:56:02.816Z,39.85
2018-05-08T07:57:03.029Z,39.85
2018-05-08T07:58:03.229Z,40.12
2018-05-08T07:59:03.423Z,39.56
2018-05-08T08:00:04.336Z,39.48
2018-05-08T08:01:03.841Z,39.60
2018-05-08T08:02:04.066Z,39.90
2018-05-08T08:03:04.264Z,39.62
2018-05-08T08:04:04.456Z,39.89
2018-05-08T08:05:04.655Z,40.08
2018-05-08T08:06:04.916Z,40.11
2018-05-08T08:07:05.095Z,39.80
2018-05-08T08:08:05.366Z,40.20
2018-05-08T08:09:05.712Z,39.92
2018-05-08T08:10:05.709Z,40.14
2018-05-08T08:11:05.808Z,40.46
2018-05-08T08:12:06.017Z,40.11
2018-05-08T08:13:06.217Z,40.35
2018-05-08T08:14:06.537Z,39.99
2018-05-08T08:15:06.631Z,39.90
2018-05-08T08:16:06.893Z,40.20
2018-05-08T08:17:07.085Z,40.30
2018-05-08T08:18:07.299Z,40.30
2018-05-08T08:19:07.499Z,40.41
2018-05-08T08:20:07.727Z,40.38
2018-05-08T08:21:07.971Z,40.38
2018-05-08T08:22:07.960Z,40.21
2018-05-08T08:23:08.217Z,40.50
2018-05-08T08:24:08.298Z,40.65
2018-05-08T08:25:08.506Z,40.82
2018-05-08T08:26:08.706Z,40.66
2018-05-08T08:27:08.961Z,40.96
2018-05-08T08:28:09.148Z,41.28
2018-05-08T08:29:09.428Z,41.57
2018-05-08T08:30:09.539Z,42.16
2018-05-08T08:31:09.741Z,42.06
2018-05-08T08:32:09.931Z,42.19
2018-05-08T08:33:10.043Z,42.17
2018-05-08T08:34:10.253Z,42.29
2018-05-08T08:35:10.477Z,42.29
2018-05-08T08:36:10.684Z,41.97
2018-05-08T08:37:10.960Z,40.62
2018-05-08T08:38:11.038Z,40.65
2018-05-08T08:39:11.267Z,41.26
2018-05-08T08:40:11.528Z,41.68
2018-05-08T08:41:11.712Z,41.37
2018-05-08T08:42:11.859Z,41.65
2018-05-08T08:43:12.009Z,41.21
2018-05-08T08:44:12.129Z,41.10
2018-05-08T08:45:12.372Z,41.03
2018-05-08T08:46:12.502Z,42.06
2018-05-08T08:47:12.698Z,42.62
2018-05-08T08:48:12.926Z,42.20
2018-05-08T08:49:13.195Z,42.48
2018-05-08T08:50:13.309Z,42.88
2018-05-08T08:51:13.553Z,43.07
2018-05-08T08:52:13.790Z,43.26
2018-05-08T08:53:13.922Z,43.28
2018-05-08T08:54:14.151Z,42.85
2018-05-08T08:55:14.399Z,42.60
2018-05-08T08:56:14.542Z,42.95
2018-05-08T08:57:14.671Z,43.38
2018-05-08T08:58:14.809Z,43.76
2018-05-08T08:59:14.965Z,43.80
2018-05-08T09:00:15.066Z,43.73
2018-05-08T09:01:15.267Z,43.83
2018-05-08T09:02:15.535Z,43.23
2018-05-08T09:03:15.640Z,43.58
2018-05-08T09:04:15.941Z,43.11
2018-05-08T09:05:16.437Z,42.91
2018-05-08T09:06:16.209Z,42.95
2018-05-08T09:07:16.603Z,42.57
2018-05-08T09:08:16.567Z,42.06
2018-05-08T09:09:16.770Z,42.02
2018-05-08T09:10:17.703Z,42.32
2018-05-08T09:11:17.230Z,42.24
2018-05-08T09:12:17.456Z,42.66
2018-05-08T09:13:17.555Z,43.00
2018-05-08T09:14:17.761Z,42.94
2018-05-08T09:15:17.990Z,42.78
2018-05-08T09:16:18.212Z,41.38
2018-05-08T09:17:18.432Z,40.80
2018-05-08T09:18:18.621Z,39.78
2018-05-08T09:19:18.844Z,39.92
2018-05-08T09:20:19.130Z,40.33
2018-05-08T09:21:19.616Z,40.51
2018-05-08T09:22:19.413Z,40.99
2018-05-08T09:23:19.505Z,41.12
2018-05-08T09:24:19.663Z,41.40
2018-05-08T09:25:19.890Z,42.07
2018-05-08T09:26:20.090Z,42.44
2018-05-08T09:27:20.497Z,41.03
2018-05-08T09:28:20.486Z,40.75
2018-05-08T09:29:20.992Z,41.04
2018-05-08T09:30:20.850Z,41.25
2018-05-08T09:31:21.745Z,41.33
2018-05-08T09:32:21.253Z,41.07
2018-05-08T09:33:21.306Z,40.24
2018-05-08T09:34:22.176Z,40.50
2018-05-08T09:35:21.829Z,40.23
2018-05-08T09:36:22.175Z,40.30
2018-05-08T09:37:22.352Z,40.54
2018-05-08T09:38:22.186Z,40.96
2018-05-08T09:39:22.384Z,40.99
2018-05-08T09:40:22.605Z,41.19
2018-05-08T09:41:22.827Z,41.16
2018-05-08T09:42:23.339Z,41.41
2018-05-08T09:43:23.216Z,41.40
2018-05-08T09:44:23.526Z,41.66
2018-05-08T09:45:23.687Z,41.75
2018-05-08T09:46:23.959Z,42.16
2018-05-08T09:47:24.139Z,42.29
2018-05-08T09:48:24.308Z,41.40
2018-05-08T09:49:24.150Z,41.56
2018-05-08T09:50:24.736Z,41.45
2018-05-08T09:51:24.790Z,41.43
2018-05-08T09:52:25.075Z,41.47
2018-05-08T09:53:25.187Z,41.40
2018-05-08T09:54:25.201Z,41.45
2018-05-08T09:55:25.322Z,41.66
2018-05-08T09:56:25.531Z,41.52
2018-05-08T09:57:25.829Z,41.37
2018-05-08T09:58:25.940Z,41.15
2018-05-08T09:59:25.821Z,41.26
2018-05-08T10:00:26.136Z,41.37
2018-05-08T10:01:26.462Z,41.34
2018-05-08T10:02:26.433Z,41.41
2018-05-08T10:03:26.628Z,40.97
2018-05-08T10:04:26.822Z,40.00
2018-05-08T10:05:27.026Z,39.78
2018-05-08T10:06:27.219Z,39.41
2018-05-08T10:07:27.415Z,39.67
2018-05-08T10:08:27.616Z,39.90
2018-05-08T10:09:27.817Z,39.67
2018-05-08T10:10:28.014Z,39.93
2018-05-08T10:11:28.211Z,40.12
2018-05-08T10:12:28.410Z,40.12
2018-05-08T10:13:28.598Z,40.02
2018-05-08T10:14:28.817Z,39.34
2018-05-08T10:15:28.983Z,39.46
2018-05-08T10:16:29.183Z,39.25
2018-05-08T10:17:29.379Z,38.68
2018-05-08T10:18:29.588Z,38.87
2018-05-08T10:19:29.841Z,38.84
2018-05-08T10:20:29.986Z,39.07
2018-05-08T10:21:30.536Z,38.76
2018-05-08T10:22:30.369Z,37.94
2018-05-08T10:23:30.567Z,37.37
2018-05-08T10:24:30.764Z,37.53
2018-05-08T10:25:30.956Z,37.36
2018-05-08T10:26:31.153Z,37.07
2018-05-08T10:27:31.349Z,36.89
2018-05-08T10:28:31.547Z,36.09
2018-05-08T10:29:31.743Z,35.56
2018-05-08T10:30:31.923Z,35.44
2018-05-08T10:31:32.120Z,35.04
2018-05-08T10:32:32.335Z,34.81
2018-05-08T10:33:32.520Z,34.57
2018-05-08T10:34:34.724Z,34.73
2018-05-08T10:35:35.664Z,34.73
2018-05-08T10:36:33.247Z,34.43
2018-05-08T10:37:33.203Z,34.20
2018-05-08T10:38:33.397Z,34.05
2018-05-08T10:39:33.599Z,33.83
2018-05-08T10:40:33.774Z,33.69
2018-05-08T10:41:34.148Z,33.07
2018-05-08T10:42:34.115Z,32.27
2018-05-08T10:43:34.327Z,32.37
2018-05-08T10:44:34.532Z,32.38
2018-05-08T10:45:34.712Z,32.04
2018-05-08T10:46:34.922Z,31.59
2018-05-08T10:47:35.219Z,31.62
2018-05-08T10:48:35.400Z,31.62
2018-05-08T10:49:35.465Z,31.62
2018-05-08T10:50:35.658Z,31.44
2018-05-08T10:51:35.847Z,31.64
2018-05-08T10:52:36.051Z,31.37
2018-05-08T10:53:36.255Z,31.12
2018-05-08T10:54:36.467Z,30.92
2018-05-08T10:55:36.730Z,30.99
2018-05-08T10:56:36.838Z,31.21
2018-05-08T10:57:37.036Z,31.27
2018-05-08T10:58:37.238Z,30.94
2018-05-08T10:59:37.439Z,30.48
2018-05-08T11:00:37.637Z,30.68
2018-05-08T11:01:37.915Z,30.53
2018-05-08T11:02:38.030Z,30.54
2018-05-08T11:03:38.216Z,30.53
2018-05-08T11:04:38.406Z,30.78
2018-05-08T11:05:38.593Z,30.94
2018-05-08T11:06:38.778Z,31.24
2018-05-08T11:07:38.976Z,31.36
2018-05-08T11:08:39.168Z,31.59
2018-05-08T11:09:39.372Z,31.74
2018-05-08T11:10:39.564Z,31.74
2018-05-08T11:11:39.759Z,31.89
2018-05-08T11:12:39.957Z,32.04
2018-05-08T11:13:40.426Z,32.07
2018-05-08T11:14:40.294Z,31.99
2018-05-08T11:15:40.550Z,31.97
2018-05-08T11:16:40.756Z,31.76
2018-05-08T11:17:41.335Z,31.59
2018-05-08T11:18:41.037Z,31.22
2018-05-08T11:19:41.332Z,31.17
2018-05-08T11:20:41.438Z,30.80
2018-05-08T11:21:41.664Z,31.00
2018-05-08T11:22:41.753Z,30.92
2018-05-08T11:23:41.972Z,30.73
2018-05-08T11:24:43.231Z,30.80
2018-05-08T11:25:44.293Z,30.80
2018-05-08T11:26:42.595Z,30.81
2018-05-08T11:27:42.692Z,30.69
2018-05-08T11:28:42.893Z,30.75
2018-05-08T11:29:43.076Z,30.57
2018-05-08T11:30:43.268Z,30.61
2018-05-08T11:31:43.686Z,30.43
2018-05-08T11:32:43.584Z,30.57
2018-05-08T11:33:43.815Z,30.70
2018-05-08T11:34:44.012Z,30.62
2018-05-08T11:35:44.201Z,30.55
2018-05-08T11:36:44.397Z,30.51
2018-05-08T11:37:44.607Z,30.72
2018-05-08T11:38:44.810Z,30.84
2018-05-08T11:39:44.996Z,30.57
2018-05-08T11:40:45.220Z,30.72
2018-05-08T11:41:46.444Z,30.73
2018-05-08T11:42:45.581Z,30.78
2018-05-08T11:43:45.773Z,30.63
2018-05-08T11:44:46.001Z,30.40
2018-05-08T11:45:46.157Z,30.30
2018-05-08T11:46:46.352Z,30.08
2018-05-08T11:47:46.545Z,30.03
2018-05-08T11:48:46.734Z,30.05
2018-05-08T11:49:46.922Z,30.06
2018-05-08T11:50:47.146Z,29.88
2018-05-08T11:51:47.355Z,29.82
2018-05-08T11:52:47.544Z,29.86
2018-05-08T11:53:47.748Z,29.68
2018-05-08T11:54:47.931Z,29.41
2018-05-08T11:55:48.125Z,29.51
2018-05-08T11:56:48.324Z,29.66
2018-05-08T11:57:48.524Z,29.86
2018-05-08T11:58:48.724Z,29.95
2018-05-08T11:59:48.920Z,30.06
2018-05-08T12:00:49.108Z,30.08
2018-05-08T12:01:49.287Z,29.88
2018-05-08T12:02:49.514Z,29.95
2018-05-08T12:03:49.706Z,29.88
2018-05-08T12:04:50.261Z,29.94
2018-05-08T12:05:50.117Z,29.75
2018-05-08T12:06:50.309Z,29.66
2018-05-08T12:07:50.505Z,29.63
2018-05-08T12:08:50.716Z,29.66
2018-05-08T12:09:50.873Z,29.79
2018-05-08T12:10:51.105Z,29.93
2018-05-08T12:11:51.254Z,29.94
2018-05-08T12:12:51.547Z,29.78
2018-05-08T12:13:51.641Z,29.69
2018-05-08T12:14:51.939Z,29.53
2018-05-08T12:15:52.071Z,29.54
2018-05-08T12:16:52.281Z,29.68
2018-05-08T12:17:52.941Z,29.68
2018-05-08T12:18:52.798Z,29.57
2018-05-08T12:19:52.813Z,29.68
2018-05-08T12:20:53.009Z,29.42
2018-05-08T12:21:53.255Z,29.50
2018-05-08T12:22:53.461Z,29.24
2018-05-08T12:23:53.543Z,29.41
2018-05-08T12:24:53.749Z,29.17
2018-05-08T12:25:53.998Z,29.35
2018-05-08T12:26:54.099Z,29.12
2018-05-08T12:27:54.310Z,29.01
2018-05-08T12:28:54.511Z,29.12
2018-05-08T12:29:54.698Z,29.08
2018-05-08T12:30:54.892Z,28.96
2018-05-08T12:31:55.137Z,28.96
2018-05-08T12:32:55.322Z,29.13
2018-05-08T12:33:55.547Z,29.16
2018-05-08T12:34:55.706Z,29.08
2018-05-08T12:35:55.978Z,29.10
2018-05-08T12:36:56.387Z,29.04
2018-05-08T12:37:56.347Z,29.13
2018-05-08T12:38:56.542Z,28.98
2018-05-08T12:39:56.735Z,29.12
2018-05-08T12:40:56.913Z,29.13
2018-05-08T12:41:57.167Z,29.12
2018-05-08T12:42:57.328Z,29.14
2018-05-08T12:43:57.526Z,29.26
2018-05-08T12:44:57.726Z,29.22
2018-05-08T12:45:57.921Z,29.22
2018-05-08T12:46:58.109Z,29.22
2018-05-08T12:47:58.366Z,29.26
2018-05-08T12:48:58.446Z,29.39
2018-05-08T12:49:58.641Z,29.51
2018-05-08T12:50:58.838Z,29.42
2018-05-08T12:51:59.045Z,29.19
2018-05-08T12:52:59.235Z,28.85
2018-05-08T12:53:59.447Z,28.82
2018-05-08T12:54:59.665Z,28.84